CTN439 LYTV-LDRI
Flight info
| Callsign | CTN439 |
|---|---|
| Flight time | 0h 46m |
| Altitude | 34000 |
| Route | LASTI DCT VAKSU DCT AMUGO DCT BRC DCT ZDA DCT LSJ DCT CRE |
| Aircraft | A320/M-SDE3FGHIRWY/LB1 |
Departure
| Time | 2026-05-08 22:22 |
|---|---|
| Airport | Tivat Airport (LYTV) |
Arrival
| Time | 2026-05-08 23:08 |
|---|---|
| Airport | Rijeka Airport (LDRI) |
| Time | Latitude | Longitude | Altitude | Speed | Heading |
|---|---|---|---|---|---|
| 2026-05-08 22:07 | 42.41302 | 18.71595 | 2 ft | 0 kts | 160° |
| 2026-05-08 22:19 | 42.41299 | 18.71597 | 33 ft | 1 kts | 160° |
| 2026-05-08 22:20 | 42.41281 | 18.71589 | 31 ft | 4 kts | 217° |
| 2026-05-08 22:20 | 42.41287 | 18.71547 | 29 ft | 7 kts | 307° |
| 2026-05-08 22:20 | 42.41341 | 18.71482 | 28 ft | 13 kts | 316° |
| 2026-05-08 22:20 | 42.41337 | 18.71373 | 29 ft | 12 kts | 227° |
| 2026-05-08 22:21 | 42.41268 | 18.71381 | 27 ft | 4 kts | 140° |
| 2026-05-08 22:21 | 42.41268 | 18.71382 | 27 ft | 0 kts | 140° |
| 2026-05-08 22:21 | 42.41128 | 18.71546 | 29 ft | 65 kts | 139° |
| 2026-05-08 22:22 | 42.40610 | 18.72160 | 27 ft | 131 kts | 139° |
| 2026-05-08 22:22 | 42.39813 | 18.73108 | 225 ft | 162 kts | 138° |
| 2026-05-08 22:22 | 42.38929 | 18.74053 | 836 ft | 163 kts | 148° |
| 2026-05-08 22:22 | 42.37900 | 18.74682 | 1484 ft | 163 kts | 162° |
| 2026-05-08 22:23 | 42.36777 | 18.75119 | 1984 ft | 177 kts | 163° |
| 2026-05-08 22:23 | 42.35530 | 18.75614 | 2362 ft | 196 kts | 163° |
| 2026-05-08 22:23 | 42.34138 | 18.76184 | 2662 ft | 224 kts | 163° |
| 2026-05-08 22:23 | 42.32566 | 18.76829 | 3131 ft | 247 kts | 163° |
| 2026-05-08 22:24 | 42.30835 | 18.77287 | 3782 ft | 262 kts | 182° |
| 2026-05-08 22:24 | 42.29111 | 18.76472 | 4622 ft | 270 kts | 216° |
| 2026-05-08 22:24 | 42.27646 | 18.74856 | 5593 ft | 273 kts | 215° |
| 2026-05-08 22:24 | 42.26055 | 18.73422 | 6484 ft | 279 kts | 211° |
| 2026-05-08 22:25 | 42.24399 | 18.71994 | 7326 ft | 284 kts | 211° |
| 2026-05-08 22:25 | 42.22721 | 18.70576 | 8241 ft | 286 kts | 211° |
| 2026-05-08 22:25 | 42.21026 | 18.69142 | 9194 ft | 288 kts | 213° |
| 2026-05-08 22:25 | 42.19605 | 18.67269 | 10130 ft | 291 kts | 236° |
| 2026-05-08 22:26 | 42.18798 | 18.64708 | 10723 ft | 306 kts | 259° |
| 2026-05-08 22:26 | 42.18896 | 18.61751 | 10970 ft | 332 kts | 286° |
| 2026-05-08 22:26 | 42.19847 | 18.58788 | 11163 ft | 356 kts | 295° |
| 2026-05-08 22:26 | 42.20941 | 18.55721 | 11564 ft | 369 kts | 295° |
| 2026-05-08 22:27 | 42.22063 | 18.52583 | 12225 ft | 374 kts | 295° |
| 2026-05-08 22:27 | 42.23191 | 18.49406 | 12936 ft | 377 kts | 295° |
| 2026-05-08 22:27 | 42.24320 | 18.46189 | 13653 ft | 380 kts | 295° |
| 2026-05-08 22:27 | 42.25449 | 18.42949 | 14304 ft | 383 kts | 294° |
| 2026-05-08 22:28 | 42.26581 | 18.39679 | 14945 ft | 385 kts | 294° |
| 2026-05-08 22:28 | 42.27702 | 18.36431 | 15607 ft | 387 kts | 294° |
| 2026-05-08 22:28 | 42.28844 | 18.33128 | 16274 ft | 389 kts | 294° |
| 2026-05-08 22:28 | 42.29992 | 18.29813 | 16907 ft | 391 kts | 294° |
| 2026-05-08 22:29 | 42.31149 | 18.26475 | 17555 ft | 393 kts | 294° |
| 2026-05-08 22:29 | 42.32310 | 18.23124 | 18205 ft | 395 kts | 294° |
| 2026-05-08 22:29 | 42.33477 | 18.19750 | 18755 ft | 397 kts | 294° |
| 2026-05-08 22:29 | 42.34650 | 18.16354 | 19266 ft | 400 kts | 294° |
| 2026-05-08 22:30 | 42.35828 | 18.12933 | 19757 ft | 403 kts | 294° |
| 2026-05-08 22:30 | 42.37010 | 18.09489 | 20246 ft | 405 kts | 294° |
| 2026-05-08 22:30 | 42.38199 | 18.06014 | 20715 ft | 408 kts | 293° |
| 2026-05-08 22:30 | 42.39394 | 18.02521 | 21184 ft | 411 kts | 294° |
| 2026-05-08 22:31 | 42.40602 | 17.99001 | 21600 ft | 414 kts | 294° |
| 2026-05-08 22:31 | 42.41822 | 17.95450 | 22028 ft | 418 kts | 294° |
| 2026-05-08 22:31 | 42.43049 | 17.91868 | 22459 ft | 420 kts | 293° |
| 2026-05-08 22:31 | 42.44279 | 17.88270 | 22878 ft | 423 kts | 293° |
| 2026-05-08 22:32 | 42.45517 | 17.84641 | 23296 ft | 426 kts | 293° |
| 2026-05-08 22:32 | 42.46760 | 17.80990 | 23685 ft | 429 kts | 293° |
| 2026-05-08 22:32 | 42.48012 | 17.77310 | 24058 ft | 430 kts | 293° |
| 2026-05-08 22:32 | 42.49266 | 17.73619 | 24461 ft | 431 kts | 293° |
| 2026-05-08 22:33 | 42.50517 | 17.69933 | 24858 ft | 431 kts | 293° |
| 2026-05-08 22:33 | 42.51764 | 17.66248 | 25249 ft | 432 kts | 293° |
| 2026-05-08 22:33 | 42.53023 | 17.62548 | 25637 ft | 432 kts | 294° |
| 2026-05-08 22:33 | 42.54526 | 17.59019 | 26011 ft | 434 kts | 303° |
| 2026-05-08 22:34 | 42.56438 | 17.55834 | 26376 ft | 437 kts | 311° |
| 2026-05-08 22:34 | 42.57886 | 17.53935 | 26615 ft | 438 kts | 314° |
| 2026-05-08 22:34 | 42.60107 | 17.51088 | 26965 ft | 439 kts | 314° |
| 2026-05-08 22:34 | 42.62330 | 17.48238 | 27322 ft | 439 kts | 314° |
| 2026-05-08 22:35 | 42.64549 | 17.45393 | 27673 ft | 439 kts | 314° |
| 2026-05-08 22:35 | 42.66776 | 17.42536 | 28013 ft | 440 kts | 314° |
| 2026-05-08 22:35 | 42.68995 | 17.39684 | 28419 ft | 439 kts | 314° |
| 2026-05-08 22:35 | 42.71204 | 17.36844 | 28925 ft | 436 kts | 313° |
| 2026-05-08 22:36 | 42.73395 | 17.34022 | 29441 ft | 432 kts | 313° |
| 2026-05-08 22:36 | 42.75567 | 17.31222 | 29981 ft | 429 kts | 313° |
| 2026-05-08 22:36 | 42.77726 | 17.28433 | 30467 ft | 425 kts | 313° |
| 2026-05-08 22:36 | 42.79864 | 17.25669 | 30871 ft | 423 kts | 313° |
| 2026-05-08 22:37 | 42.81988 | 17.22912 | 31245 ft | 421 kts | 313° |
| 2026-05-08 22:37 | 42.84105 | 17.20159 | 31612 ft | 420 kts | 313° |
| 2026-05-08 22:37 | 42.86215 | 17.17412 | 31982 ft | 419 kts | 313° |
| 2026-05-08 22:37 | 42.88323 | 17.14671 | 32353 ft | 418 kts | 313° |
| 2026-05-08 22:38 | 42.90427 | 17.11929 | 32728 ft | 417 kts | 312° |
| 2026-05-08 22:38 | 42.92524 | 17.09198 | 33100 ft | 416 kts | 312° |
| 2026-05-08 22:38 | 42.94617 | 17.06472 | 33500 ft | 415 kts | 312° |
| 2026-05-08 22:38 | 42.96703 | 17.03750 | 33890 ft | 414 kts | 312° |
| 2026-05-08 22:39 | 42.98784 | 17.01028 | 34029 ft | 415 kts | 312° |
| 2026-05-08 22:39 | 43.02958 | 16.95565 | 34049 ft | 415 kts | 312° |
| 2026-05-08 22:40 | 43.07131 | 16.90103 | 34049 ft | 415 kts | 312° |
| 2026-05-08 22:40 | 43.11301 | 16.84629 | 34049 ft | 415 kts | 312° |
| 2026-05-08 22:41 | 43.15467 | 16.79148 | 34054 ft | 416 kts | 312° |
| 2026-05-08 22:41 | 43.19634 | 16.73657 | 34079 ft | 415 kts | 312° |
| 2026-05-08 22:42 | 43.23784 | 16.68175 | 34064 ft | 414 kts | 312° |
| 2026-05-08 22:42 | 43.27930 | 16.62678 | 34054 ft | 414 kts | 311° |
| 2026-05-08 22:43 | 43.31905 | 16.56979 | 34052 ft | 413 kts | 308° |
| 2026-05-08 22:43 | 43.35703 | 16.51069 | 34050 ft | 412 kts | 307° |
| 2026-05-08 22:44 | 43.39474 | 16.45194 | 34049 ft | 413 kts | 308° |
| 2026-05-08 22:44 | 43.43312 | 16.39313 | 34074 ft | 413 kts | 308° |
| 2026-05-08 22:45 | 43.47165 | 16.33444 | 34079 ft | 412 kts | 308° |
| 2026-05-08 22:45 | 43.51008 | 16.27585 | 34076 ft | 412 kts | 308° |
| 2026-05-08 22:46 | 43.54835 | 16.21722 | 34076 ft | 411 kts | 308° |
| 2026-05-08 22:46 | 43.58648 | 16.15853 | 34072 ft | 411 kts | 308° |
| 2026-05-08 22:47 | 43.62459 | 16.09981 | 34080 ft | 411 kts | 308° |
| 2026-05-08 22:47 | 43.66264 | 16.04089 | 34078 ft | 411 kts | 308° |
| 2026-05-08 22:48 | 43.70067 | 15.98205 | 34076 ft | 410 kts | 308° |
| 2026-05-08 22:48 | 43.73871 | 15.92318 | 34077 ft | 410 kts | 308° |
| 2026-05-08 22:49 | 43.77669 | 15.86420 | 34072 ft | 411 kts | 308° |
| 2026-05-08 22:49 | 43.83362 | 15.77552 | 34069 ft | 411 kts | 308° |
| 2026-05-08 22:50 | 43.87154 | 15.71635 | 34075 ft | 411 kts | 308° |
| 2026-05-08 22:50 | 43.90942 | 15.65709 | 34074 ft | 410 kts | 308° |
| 2026-05-08 22:51 | 43.94722 | 15.59772 | 34102 ft | 410 kts | 308° |
| 2026-05-08 22:51 | 43.96663 | 15.56872 | 33980 ft | 412 kts | 314° |
| 2026-05-08 22:51 | 43.98978 | 15.54451 | 33010 ft | 421 kts | 321° |
| 2026-05-08 22:52 | 44.01407 | 15.52185 | 32220 ft | 421 kts | 322° |
| 2026-05-08 22:52 | 44.03864 | 15.49952 | 31462 ft | 421 kts | 322° |
| 2026-05-08 22:52 | 44.06326 | 15.47732 | 30721 ft | 423 kts | 322° |
| 2026-05-08 22:52 | 44.08776 | 15.45574 | 29985 ft | 424 kts | 326° |
| 2026-05-08 22:53 | 44.11369 | 15.43629 | 29144 ft | 424 kts | 328° |
| 2026-05-08 22:53 | 44.13984 | 15.41746 | 28324 ft | 423 kts | 329° |
| 2026-05-08 22:53 | 44.16612 | 15.39894 | 27541 ft | 423 kts | 329° |
| 2026-05-08 22:53 | 44.19242 | 15.38055 | 26777 ft | 423 kts | 330° |
| 2026-05-08 22:54 | 44.21864 | 15.36217 | 26025 ft | 422 kts | 330° |
| 2026-05-08 22:54 | 44.24493 | 15.34359 | 25288 ft | 422 kts | 330° |
| 2026-05-08 22:54 | 44.27103 | 15.32496 | 24576 ft | 422 kts | 330° |
| 2026-05-08 22:54 | 44.29708 | 15.30630 | 23879 ft | 422 kts | 330° |
| 2026-05-08 22:55 | 44.32324 | 15.28754 | 23105 ft | 422 kts | 331° |
| 2026-05-08 22:55 | 44.34937 | 15.26878 | 22301 ft | 423 kts | 331° |
| 2026-05-08 22:55 | 44.37548 | 15.25003 | 21522 ft | 423 kts | 331° |
| 2026-05-08 22:55 | 44.40162 | 15.23124 | 20764 ft | 422 kts | 331° |
| 2026-05-08 22:56 | 44.42765 | 15.21253 | 20234 ft | 417 kts | 331° |
| 2026-05-08 22:56 | 44.45326 | 15.19409 | 19701 ft | 413 kts | 331° |
| 2026-05-08 22:56 | 44.47870 | 15.17574 | 19159 ft | 410 kts | 331° |
| 2026-05-08 22:56 | 44.50407 | 15.15739 | 18636 ft | 408 kts | 330° |
| 2026-05-08 22:57 | 44.52922 | 15.13917 | 18109 ft | 406 kts | 330° |
| 2026-05-08 22:57 | 44.55420 | 15.12105 | 17585 ft | 403 kts | 330° |
| 2026-05-08 22:57 | 44.57896 | 15.10312 | 17063 ft | 399 kts | 331° |
| 2026-05-08 22:57 | 44.60351 | 15.08536 | 16541 ft | 395 kts | 331° |
| 2026-05-08 22:58 | 44.62788 | 15.06774 | 16040 ft | 391 kts | 331° |
| 2026-05-08 22:58 | 44.65195 | 15.05029 | 15538 ft | 388 kts | 332° |
| 2026-05-08 22:58 | 44.67579 | 15.03296 | 15028 ft | 384 kts | 332° |
| 2026-05-08 22:58 | 44.69935 | 15.01580 | 14525 ft | 380 kts | 332° |
| 2026-05-08 22:59 | 44.72273 | 14.99877 | 13875 ft | 380 kts | 332° |
| 2026-05-08 22:59 | 44.74648 | 14.98149 | 12782 ft | 387 kts | 332° |
| 2026-05-08 22:59 | 44.77025 | 14.96417 | 11737 ft | 381 kts | 333° |
| 2026-05-08 22:59 | 44.79340 | 14.94723 | 11095 ft | 368 kts | 333° |
| 2026-05-08 23:00 | 44.81569 | 14.93090 | 10562 ft | 355 kts | 333° |
| 2026-05-08 23:00 | 44.83710 | 14.91521 | 10050 ft | 339 kts | 333° |
| 2026-05-08 23:00 | 44.85757 | 14.90022 | 9521 ft | 324 kts | 333° |
| 2026-05-08 23:00 | 44.87717 | 14.88587 | 9042 ft | 311 kts | 333° |
| 2026-05-08 23:01 | 44.89601 | 14.87208 | 8568 ft | 299 kts | 333° |
| 2026-05-08 23:01 | 44.91413 | 14.85882 | 8126 ft | 288 kts | 333° |
| 2026-05-08 23:01 | 44.93163 | 14.84599 | 7686 ft | 279 kts | 333° |
| 2026-05-08 23:01 | 44.94854 | 14.83358 | 7261 ft | 270 kts | 333° |
| 2026-05-08 23:02 | 44.96489 | 14.82156 | 6845 ft | 261 kts | 333° |
| 2026-05-08 23:02 | 44.98077 | 14.80988 | 6423 ft | 253 kts | 333° |
| 2026-05-08 23:02 | 44.99614 | 14.79846 | 6000 ft | 246 kts | 330° |
| 2026-05-08 23:02 | 45.00997 | 14.78487 | 5589 ft | 239 kts | 324° |
| 2026-05-08 23:03 | 45.02330 | 14.77116 | 5178 ft | 235 kts | 324° |
| 2026-05-08 23:03 | 45.03636 | 14.75765 | 4785 ft | 230 kts | 324° |
| 2026-05-08 23:03 | 45.04914 | 14.74440 | 4370 ft | 226 kts | 323° |
| 2026-05-08 23:03 | 45.06161 | 14.73148 | 3999 ft | 217 kts | 323° |
| 2026-05-08 23:04 | 45.07348 | 14.71924 | 3633 ft | 205 kts | 323° |
| 2026-05-08 23:04 | 45.08462 | 14.70772 | 3318 ft | 192 kts | 323° |
| 2026-05-08 23:04 | 45.09519 | 14.69678 | 2951 ft | 184 kts | 323° |
| 2026-05-08 23:04 | 45.10510 | 14.68655 | 2732 ft | 167 kts | 323° |
| 2026-05-08 23:05 | 45.11398 | 14.67740 | 2507 ft | 150 kts | 323° |
| 2026-05-08 23:05 | 45.12213 | 14.66898 | 2320 ft | 142 kts | 323° |
| 2026-05-08 23:05 | 45.12990 | 14.66092 | 2139 ft | 139 kts | 323° |
| 2026-05-08 23:05 | 45.13766 | 14.65288 | 1962 ft | 138 kts | 323° |
| 2026-05-08 23:06 | 45.14547 | 14.64476 | 1777 ft | 137 kts | 323° |
| 2026-05-08 23:06 | 45.15314 | 14.63677 | 1597 ft | 137 kts | 323° |
| 2026-05-08 23:06 | 45.16081 | 14.62881 | 1405 ft | 137 kts | 324° |
| 2026-05-08 23:06 | 45.16842 | 14.62102 | 1220 ft | 137 kts | 324° |
| 2026-05-08 23:07 | 45.17616 | 14.61298 | 1038 ft | 136 kts | 323° |
| 2026-05-08 23:07 | 45.18374 | 14.60491 | 865 ft | 136 kts | 323° |
| 2026-05-08 23:07 | 45.19122 | 14.59712 | 703 ft | 135 kts | 324° |
| 2026-05-08 23:07 | 45.19889 | 14.58927 | 525 ft | 134 kts | 324° |
| 2026-05-08 23:08 | 45.20628 | 14.58160 | 349 ft | 133 kts | 323° |
| 2026-05-08 23:08 | 45.21355 | 14.57409 | 264 ft | 116 kts | 323° |
| 2026-05-08 23:08 | 45.21862 | 14.56879 | 262 ft | 59 kts | 323° |
| 2026-05-08 23:08 | 45.22004 | 14.56732 | 263 ft | 10 kts | 324° |
| 2026-05-08 23:09 | 45.22048 | 14.56745 | 263 ft | 8 kts | 79° |
| 2026-05-08 23:09 | 45.22036 | 14.56824 | 264 ft | 8 kts | 104° |
| 2026-05-08 23:09 | 45.22023 | 14.56897 | 265 ft | 7 kts | 105° |
| 2026-05-08 23:09 | 45.22016 | 14.56931 | 267 ft | 0 kts | 105° |
| 2026-05-08 23:10 | 45.22014 | 14.56941 | 268 ft | 3 kts | 105° |
| 2026-05-08 23:10 | 45.21990 | 14.56992 | 268 ft | 9 kts | 140° |
| 2026-05-08 23:11 | 45.21962 | 14.57049 | 268 ft | 6 kts | 85° |
| 2026-05-08 23:11 | 45.21958 | 14.57096 | 269 ft | 3 kts | 105° |
| 2026-05-08 23:11 | 45.21957 | 14.57100 | 269 ft | 0 kts | 104° |